sensor_id;sensor_type;location;lat;lon;timestamp;temperature;humidity
16347;DHT22;8283;48.504;13.734;2023-03-12T00:01:41;5.50;53.90
16347;DHT22;8283;48.504;13.734;2023-03-12T00:04:26;5.50;54.00
16347;DHT22;8283;48.504;13.734;2023-03-12T00:07:11;5.50;54.10
16347;DHT22;8283;48.504;13.734;2023-03-12T00:09:56;5.40;54.00
16347;DHT22;8283;48.504;13.734;2023-03-12T00:12:43;5.40;54.20
16347;DHT22;8283;48.504;13.734;2023-03-12T00:15:27;5.40;54.20
16347;DHT22;8283;48.504;13.734;2023-03-12T00:18:11;5.40;54.20
16347;DHT22;8283;48.504;13.734;2023-03-12T00:20:56;5.40;54.40
16347;DHT22;8283;48.504;13.734;2023-03-12T00:23:40;5.40;54.40
16347;DHT22;8283;48.504;13.734;2023-03-12T00:26:24;5.40;54.60
16347;DHT22;8283;48.504;13.734;2023-03-12T00:29:09;5.40;54.60
16347;DHT22;8283;48.504;13.734;2023-03-12T00:31:53;5.40;54.60
16347;DHT22;8283;48.504;13.734;2023-03-12T00:34:38;5.40;54.70
16347;DHT22;8283;48.504;13.734;2023-03-12T00:37:23;5.40;54.80
16347;DHT22;8283;48.504;13.734;2023-03-12T00:40:08;5.50;54.90
16347;DHT22;8283;48.504;13.734;2023-03-12T00:42:54;5.50;54.90
16347;DHT22;8283;48.504;13.734;2023-03-12T00:45:38;5.50;54.90
16347;DHT22;8283;48.504;13.734;2023-03-12T00:48:23;5.50;55.00
16347;DHT22;8283;48.504;13.734;2023-03-12T00:51:08;5.50;55.10
16347;DHT22;8283;48.504;13.734;2023-03-12T00:53:52;5.50;55.30
16347;DHT22;8283;48.504;13.734;2023-03-12T00:56:39;5.60;55.40
16347;DHT22;8283;48.504;13.734;2023-03-12T00:59:23;5.60;55.40
16347;DHT22;8283;48.504;13.734;2023-03-12T01:02:08;5.60;55.40
16347;DHT22;8283;48.504;13.734;2023-03-12T01:04:53;6.30;55.70
16347;DHT22;8283;48.504;13.734;2023-03-12T01:07:37;5.70;55.50
16347;DHT22;8283;48.504;13.734;2023-03-12T01:10:22;5.70;55.60
16347;DHT22;8283;48.504;13.734;2023-03-12T01:13:07;5.70;55.50
16347;DHT22;8283;48.504;13.734;2023-03-12T01:15:51;5.70;55.50
16347;DHT22;8283;48.504;13.734;2023-03-12T01:18:35;5.80;55.50
16347;DHT22;8283;48.504;13.734;2023-03-12T01:21:19;5.80;55.50
16347;DHT22;8283;48.504;13.734;2023-03-12T01:24:04;5.80;55.50
16347;DHT22;8283;48.504;13.734;2023-03-12T01:26:48;5.80;55.50
16347;DHT22;8283;48.504;13.734;2023-03-12T01:29:33;5.80;55.60
16347;DHT22;8283;48.504;13.734;2023-03-12T01:32:18;5.80;55.50
16347;DHT22;8283;48.504;13.734;2023-03-12T01:35:02;5.90;55.50
16347;DHT22;8283;48.504;13.734;2023-03-12T01:37:47;5.90;55.50
16347;DHT22;8283;48.504;13.734;2023-03-12T01:40:34;5.90;55.50
16347;DHT22;8283;48.504;13.734;2023-03-12T01:46:21;5.90;56.00
16347;DHT22;8283;48.504;13.734;2023-03-12T01:52:27;5.80;56.50
16347;DHT22;8283;48.504;13.734;2023-03-12T01:55:15;5.80;55.80
16347;DHT22;8283;48.504;13.734;2023-03-12T01:58:02;5.80;55.70
16347;DHT22;8283;48.504;13.734;2023-03-12T02:00:47;5.80;55.60
16347;DHT22;8283;48.504;13.734;2023-03-12T02:03:33;5.80;55.60
16347;DHT22;8283;48.504;13.734;2023-03-12T02:06:24;5.70;55.90
16347;DHT22;8283;48.504;13.734;2023-03-12T02:09:11;5.70;55.80
16347;DHT22;8283;48.504;13.734;2023-03-12T02:11:56;5.70;55.60
16347;DHT22;8283;48.504;13.734;2023-03-12T02:14:41;5.70;55.60
16347;DHT22;8283;48.504;13.734;2023-03-12T02:17:26;5.60;56.00
16347;DHT22;8283;48.504;13.734;2023-03-12T02:26:04;5.50;57.10
16347;DHT22;8283;48.504;13.734;2023-03-12T02:28:50;5.40;56.50
16347;DHT22;8283;48.504;13.734;2023-03-12T02:31:42;5.30;56.60
16347;DHT22;8283;48.504;13.734;2023-03-12T02:34:27;5.30;56.80
16347;DHT22;8283;48.504;13.734;2023-03-12T02:37:11;5.20;56.50
16347;DHT22;8283;48.504;13.734;2023-03-12T02:40:04;5.20;56.30
16347;DHT22;8283;48.504;13.734;2023-03-12T02:42:52;5.10;56.50
16347;DHT22;8283;48.504;13.734;2023-03-12T02:45:37;5.10;56.60
16347;DHT22;8283;48.504;13.734;2023-03-12T02:48:22;5.10;56.70
16347;DHT22;8283;48.504;13.734;2023-03-12T02:51:06;5.00;56.60
16347;DHT22;8283;48.504;13.734;2023-03-12T02:53:51;5.00;56.30
16347;DHT22;8283;48.504;13.734;2023-03-12T02:56:39;5.00;56.30
16347;DHT22;8283;48.504;13.734;2023-03-12T02:59:24;5.00;56.50
16347;DHT22;8283;48.504;13.734;2023-03-12T03:02:12;5.00;56.30
16347;DHT22;8283;48.504;13.734;2023-03-12T03:04:56;5.00;56.20
16347;DHT22;8283;48.504;13.734;2023-03-12T03:07:40;4.90;56.10
16347;DHT22;8283;48.504;13.734;2023-03-12T03:10:25;4.90;56.30
16347;DHT22;8283;48.504;13.734;2023-03-12T03:13:10;4.90;56.50
16347;DHT22;8283;48.504;13.734;2023-03-12T03:15:55;4.90;56.50
16347;DHT22;8283;48.504;13.734;2023-03-12T03:18:41;4.90;56.30
16347;DHT22;8283;48.504;13.734;2023-03-12T03:21:25;4.80;56.20
16347;DHT22;8283;48.504;13.734;2023-03-12T03:24:10;5.60;56.50
16347;DHT22;8283;48.504;13.734;2023-03-12T03:26:54;4.80;56.20
16347;DHT22;8283;48.504;13.734;2023-03-12T03:29:39;4.80;56.40
16347;DHT22;8283;48.504;13.734;2023-03-12T03:32:24;4.80;56.60
16347;DHT22;8283;48.504;13.734;2023-03-12T03:35:09;4.80;56.30
16347;DHT22;8283;48.504;13.734;2023-03-12T03:37:53;4.70;56.20
16347;DHT22;8283;48.504;13.734;2023-03-12T03:40:38;4.70;56.20
16347;DHT22;8283;48.504;13.734;2023-03-12T03:43:23;4.70;56.10
16347;DHT22;8283;48.504;13.734;2023-03-12T03:46:10;4.70;56.10
16347;DHT22;8283;48.504;13.734;2023-03-12T03:48:57;4.70;56.00
16347;DHT22;8283;48.504;13.734;2023-03-12T03:51:42;4.70;56.00
16347;DHT22;8283;48.504;13.734;2023-03-12T03:54:28;4.60;56.00
16347;DHT22;8283;48.504;13.734;2023-03-12T03:57:14;4.60;56.40
16347;DHT22;8283;48.504;13.734;2023-03-12T03:59:59;4.60;56.10
16347;DHT22;8283;48.504;13.734;2023-03-12T04:02:43;4.60;56.00
16347;DHT22;8283;48.504;13.734;2023-03-12T04:05:30;4.50;56.00
16347;DHT22;8283;48.504;13.734;2023-03-12T04:08:15;4.50;56.00
16347;DHT22;8283;48.504;13.734;2023-03-12T04:11:06;4.50;56.00
16347;DHT22;8283;48.504;13.734;2023-03-12T04:13:50;5.20;56.70
16347;DHT22;8283;48.504;13.734;2023-03-12T04:16:38;4.50;56.20
16347;DHT22;8283;48.504;13.734;2023-03-12T04:19:22;4.40;56.10
16347;DHT22;8283;48.504;13.734;2023-03-12T04:22:07;4.40;56.10
16347;DHT22;8283;48.504;13.734;2023-03-12T04:24:52;4.40;56.10
16347;DHT22;8283;48.504;13.734;2023-03-12T04:27:37;4.40;56.10
16347;DHT22;8283;48.504;13.734;2023-03-12T04:30:23;4.40;56.10
16347;DHT22;8283;48.504;13.734;2023-03-12T04:33:07;4.30;56.10
16347;DHT22;8283;48.504;13.734;2023-03-12T04:35:52;4.30;56.10
16347;DHT22;8283;48.504;13.734;2023-03-12T04:38:38;4.30;56.10
16347;DHT22;8283;48.504;13.734;2023-03-12T04:41:24;4.30;56.10
16347;DHT22;8283;48.504;13.734;2023-03-12T04:44:18;4.20;56.30
16347;DHT22;8283;48.504;13.734;2023-03-12T04:47:03;4.20;56.30
16347;DHT22;8283;48.504;13.734;2023-03-12T04:49:48;4.20;56.30
16347;DHT22;8283;48.504;13.734;2023-03-12T04:52:32;4.20;56.30
16347;DHT22;8283;48.504;13.734;2023-03-12T04:55:17;4.20;56.30
16347;DHT22;8283;48.504;13.734;2023-03-12T04:58:02;4.20;56.30
16347;DHT22;8283;48.504;13.734;2023-03-12T05:00:47;4.20;56.40
16347;DHT22;8283;48.504;13.734;2023-03-12T05:03:32;4.20;56.40
16347;DHT22;8283;48.504;13.734;2023-03-12T05:06:17;4.10;56.40
16347;DHT22;8283;48.504;13.734;2023-03-12T05:09:02;4.10;56.40
16347;DHT22;8283;48.504;13.734;2023-03-12T05:11:47;4.10;56.50
16347;DHT22;8283;48.504;13.734;2023-03-12T05:14:34;4.10;56.50
16347;DHT22;8283;48.504;13.734;2023-03-12T05:17:19;4.10;57.20
16347;DHT22;8283;48.504;13.734;2023-03-12T05:20:04;4.10;56.60
16347;DHT22;8283;48.504;13.734;2023-03-12T05:22:51;4.10;56.70
16347;DHT22;8283;48.504;13.734;2023-03-12T05:25:40;4.10;56.70
16347;DHT22;8283;48.504;13.734;2023-03-12T05:28:25;4.10;56.90
16347;DHT22;8283;48.504;13.734;2023-03-12T05:31:13;4.10;56.90
16347;DHT22;8283;48.504;13.734;2023-03-12T05:33:58;4.10;56.90
16347;DHT22;8283;48.504;13.734;2023-03-12T05:36:43;4.10;56.90
16347;DHT22;8283;48.504;13.734;2023-03-12T05:39:29;4.10;57.00
16347;DHT22;8283;48.504;13.734;2023-03-12T05:42:18;4.10;57.10
16347;DHT22;8283;48.504;13.734;2023-03-12T05:45:04;4.20;57.20
16347;DHT22;8283;48.504;13.734;2023-03-12T05:47:49;4.20;57.30
16347;DHT22;8283;48.504;13.734;2023-03-12T05:50:34;4.20;57.30
16347;DHT22;8283;48.504;13.734;2023-03-12T05:53:18;4.30;57.50
16347;DHT22;8283;48.504;13.734;2023-03-12T05:56:07;4.30;57.50
16347;DHT22;8283;48.504;13.734;2023-03-12T05:58:51;4.40;57.70
16347;DHT22;8283;48.504;13.734;2023-03-12T06:01:37;4.40;57.70
16347;DHT22;8283;48.504;13.734;2023-03-12T06:04:22;4.50;57.80
16347;DHT22;8283;48.504;13.734;2023-03-12T06:07:09;4.50;57.80
16347;DHT22;8283;48.504;13.734;2023-03-12T06:09:53;4.60;57.80
16347;DHT22;8283;48.504;13.734;2023-03-12T06:12:38;4.70;58.40
16347;DHT22;8283;48.504;13.734;2023-03-12T06:15:23;4.70;57.90
16347;DHT22;8283;48.504;13.734;2023-03-12T06:18:07;4.80;57.90
16347;DHT22;8283;48.504;13.734;2023-03-12T06:20:52;4.80;57.80
16347;DHT22;8283;48.504;13.734;2023-03-12T06:23:38;4.90;57.90
16347;DHT22;8283;48.504;13.734;2023-03-12T06:26:24;5.00;58.00
16347;DHT22;8283;48.504;13.734;2023-03-12T06:29:08;5.00;57.90
16347;DHT22;8283;48.504;13.734;2023-03-12T06:31:52;5.10;57.90
16347;DHT22;8283;48.504;13.734;2023-03-12T06:34:39;5.20;57.90
16347;DHT22;8283;48.504;13.734;2023-03-12T06:37:23;5.20;57.90
16347;DHT22;8283;48.504;13.734;2023-03-12T06:40:10;5.30;57.90
16347;DHT22;8283;48.504;13.734;2023-03-12T06:42:56;5.30;57.90
16347;DHT22;8283;48.504;13.734;2023-03-12T06:45:40;5.30;57.90
16347;DHT22;8283;48.504;13.734;2023-03-12T06:48:28;5.40;58.00
16347;DHT22;8283;48.504;13.734;2023-03-12T06:51:14;5.50;58.00
16347;DHT22;8283;48.504;13.734;2023-03-12T06:53:59;5.50;57.90
16347;DHT22;8283;48.504;13.734;2023-03-12T06:56:45;5.60;57.80
16347;DHT22;8283;48.504;13.734;2023-03-12T06:59:29;5.60;57.70
16347;DHT22;8283;48.504;13.734;2023-03-12T07:02:13;5.70;57.70
16347;DHT22;8283;48.504;13.734;2023-03-12T07:04:58;5.70;57.70
16347;DHT22;8283;48.504;13.734;2023-03-12T07:07:42;5.80;58.20
16347;DHT22;8283;48.504;13.734;2023-03-12T07:10:27;5.80;57.70
16347;DHT22;8283;48.504;13.734;2023-03-12T07:13:12;5.90;57.90
16347;DHT22;8283;48.504;13.734;2023-03-12T07:15:56;6.50;58.30
16347;DHT22;8283;48.504;13.734;2023-03-12T07:18:41;6.10;58.20
16347;DHT22;8283;48.504;13.734;2023-03-12T07:21:25;6.20;58.30
16347;DHT22;8283;48.504;13.734;2023-03-12T07:24:10;6.30;58.40
16347;DHT22;8283;48.504;13.734;2023-03-12T07:26:54;6.40;58.50
16347;DHT22;8283;48.504;13.734;2023-03-12T07:29:39;6.60;58.50
16347;DHT22;8283;48.504;13.734;2023-03-12T07:32:23;6.70;58.50
16347;DHT22;8283;48.504;13.734;2023-03-12T07:35:08;6.90;58.50
16347;DHT22;8283;48.504;13.734;2023-03-12T07:37:53;7.00;58.50
16347;DHT22;8283;48.504;13.734;2023-03-12T07:40:37;7.50;58.70
16347;DHT22;8283;48.504;13.734;2023-03-12T07:43:22;7.20;58.50
16347;DHT22;8283;48.504;13.734;2023-03-12T07:46:10;7.40;58.50
16347;DHT22;8283;48.504;13.734;2023-03-12T07:48:55;7.50;58.40
16347;DHT22;8283;48.504;13.734;2023-03-12T07:51:40;7.60;58.30
16347;DHT22;8283;48.504;13.734;2023-03-12T07:54:25;7.80;58.20
16347;DHT22;8283;48.504;13.734;2023-03-12T07:57:13;7.80;58.10
16347;DHT22;8283;48.504;13.734;2023-03-12T07:59:58;7.80;57.90
16347;DHT22;8283;48.504;13.734;2023-03-12T08:02:42;7.90;57.90
16347;DHT22;8283;48.504;13.734;2023-03-12T08:05:26;8.00;57.80
16347;DHT22;8283;48.504;13.734;2023-03-12T08:08:10;8.10;57.70
16347;DHT22;8283;48.504;13.734;2023-03-12T08:10:55;8.10;57.70
16347;DHT22;8283;48.504;13.734;2023-03-12T08:13:40;8.10;57.70
16347;DHT22;8283;48.504;13.734;2023-03-12T08:16:24;8.20;57.90
16347;DHT22;8283;48.504;13.734;2023-03-12T08:19:08;8.30;58.10
16347;DHT22;8283;48.504;13.734;2023-03-12T08:21:53;8.60;58.40
16347;DHT22;8283;48.504;13.734;2023-03-12T08:24:38;8.60;58.50
16347;DHT22;8283;48.504;13.734;2023-03-12T08:27:22;8.80;58.60
16347;DHT22;8283;48.504;13.734;2023-03-12T08:30:07;8.90;58.70
16347;DHT22;8283;48.504;13.734;2023-03-12T08:32:52;9.10;58.90
16347;DHT22;8283;48.504;13.734;2023-03-12T08:35:36;9.30;58.90
16347;DHT22;8283;48.504;13.734;2023-03-12T08:38:21;9.60;58.90
16347;DHT22;8283;48.504;13.734;2023-03-12T08:41:05;9.80;58.70
16347;DHT22;8283;48.504;13.734;2023-03-12T08:43:49;10.00;58.60
16347;DHT22;8283;48.504;13.734;2023-03-12T08:46:33;10.10;58.40
16347;DHT22;8283;48.504;13.734;2023-03-12T08:49:21;10.30;58.50
16347;DHT22;8283;48.504;13.734;2023-03-12T08:52:06;10.50;58.50
16347;DHT22;8283;48.504;13.734;2023-03-12T08:54:51;10.70;58.70
16347;DHT22;8283;48.504;13.734;2023-03-12T08:57:35;10.90;59.00
16347;DHT22;8283;48.504;13.734;2023-03-12T09:00:20;11.20;59.20
16347;DHT22;8283;48.504;13.734;2023-03-12T09:03:05;11.50;59.20
16347;DHT22;8283;48.504;13.734;2023-03-12T09:05:50;11.80;59.20
16347;DHT22;8283;48.504;13.734;2023-03-12T09:08:34;12.00;58.90
16347;DHT22;8283;48.504;13.734;2023-03-12T09:11:18;12.30;58.70
16347;DHT22;8283;48.504;13.734;2023-03-12T09:14:03;12.60;58.50
16347;DHT22;8283;48.504;13.734;2023-03-12T09:16:48;12.80;58.10
16347;DHT22;8283;48.504;13.734;2023-03-12T09:19:32;13.00;57.70
16347;DHT22;8283;48.504;13.734;2023-03-12T09:22:16;13.20;57.60
16347;DHT22;8283;48.504;13.734;2023-03-12T09:25:01;13.40;57.40
16347;DHT22;8283;48.504;13.734;2023-03-12T09:27:46;13.50;57.20
16347;DHT22;8283;48.504;13.734;2023-03-12T09:30:30;13.60;57.00
16347;DHT22;8283;48.504;13.734;2023-03-12T09:33:15;13.80;57.30
16347;DHT22;8283;48.504;13.734;2023-03-12T09:36:00;13.90;57.30
16347;DHT22;8283;48.504;13.734;2023-03-12T09:38:45;14.10;57.30
16347;DHT22;8283;48.504;13.734;2023-03-12T09:41:32;14.30;57.00
16347;DHT22;8283;48.504;13.734;2023-03-12T09:47:26;14.60;56.40
16347;DHT22;8283;48.504;13.734;2023-03-12T09:50:32;14.70;56.10
16347;DHT22;8283;48.504;13.734;2023-03-12T09:53:24;14.80;54.90
16347;DHT22;8283;48.504;13.734;2023-03-12T09:56:17;14.90;55.90
16347;DHT22;8283;48.504;13.734;2023-03-12T09:59:03;15.00;55.50
16347;DHT22;8283;48.504;13.734;2023-03-12T10:01:59;15.10;55.40
16347;DHT22;8283;48.504;13.734;2023-03-12T10:04:56;15.30;55.10
16347;DHT22;8283;48.504;13.734;2023-03-12T10:07:47;15.30;55.00
16347;DHT22;8283;48.504;13.734;2023-03-12T10:13:45;15.40;54.50
16347;DHT22;8283;48.504;13.734;2023-03-12T10:16:58;15.50;53.90
16347;DHT22;8283;48.504;13.734;2023-03-12T10:19:55;15.40;52.60
16347;DHT22;8283;48.504;13.734;2023-03-12T10:31:34;15.30;53.20
16347;DHT22;8283;48.504;13.734;2023-03-12T10:37:55;15.30;52.20
16347;DHT22;8283;48.504;13.734;2023-03-12T10:40:40;15.30;53.60
16347;DHT22;8283;48.504;13.734;2023-03-12T10:43:24;15.30;54.10
16347;DHT22;8283;48.504;13.734;2023-03-12T10:46:29;15.30;54.10
16347;DHT22;8283;48.504;13.734;2023-03-12T10:52:19;15.50;54.20
16347;DHT22;8283;48.504;13.734;2023-03-12T10:55:18;15.70;53.30
16347;DHT22;8283;48.504;13.734;2023-03-12T10:58:04;15.80;53.80
16347;DHT22;8283;48.504;13.734;2023-03-12T11:00:59;16.00;55.40
16347;DHT22;8283;48.504;13.734;2023-03-12T11:03:44;16.20;54.20
16347;DHT22;8283;48.504;13.734;2023-03-12T11:06:31;16.50;55.50
16347;DHT22;8283;48.504;13.734;2023-03-12T11:09:18;17.30;55.50
16347;DHT22;8283;48.504;13.734;2023-03-12T11:12:25;17.00;54.70
16347;DHT22;8283;48.504;13.734;2023-03-12T11:15:28;17.30;52.60
16347;DHT22;8283;48.504;13.734;2023-03-12T11:18:56;17.50;52.70
16347;DHT22;8283;48.504;13.734;2023-03-12T11:21:54;17.60;52.60
16347;DHT22;8283;48.504;13.734;2023-03-12T11:24:58;17.70;52.20
16347;DHT22;8283;48.504;13.734;2023-03-12T11:27:45;17.80;51.90
16347;DHT22;8283;48.504;13.734;2023-03-12T11:30:51;17.80;51.90
16347;DHT22;8283;48.504;13.734;2023-03-12T11:33:36;17.70;49.30
16347;DHT22;8283;48.504;13.734;2023-03-12T11:36:59;17.60;49.70
16347;DHT22;8283;48.504;13.734;2023-03-12T11:46:04;17.00;51.70
16347;DHT22;8283;48.504;13.734;2023-03-12T11:49:06;17.00;50.70
16347;DHT22;8283;48.504;13.734;2023-03-12T12:08:37;16.00;51.20
16347;DHT22;8283;48.504;13.734;2023-03-12T12:17:43;16.10;52.00
16347;DHT22;8283;48.504;13.734;2023-03-12T12:27:12;16.30;51.50
16347;DHT22;8283;48.504;13.734;2023-03-12T12:30:26;16.40;51.30
16347;DHT22;8283;48.504;13.734;2023-03-12T12:33:46;16.40;50.70
16347;DHT22;8283;48.504;13.734;2023-03-12T12:36:37;16.40;51.20
16347;DHT22;8283;48.504;13.734;2023-03-12T12:39:31;16.40;52.10
16347;DHT22;8283;48.504;13.734;2023-03-12T12:42:22;16.40;52.00
16347;DHT22;8283;48.504;13.734;2023-03-12T12:45:09;16.50;52.20
16347;DHT22;8283;48.504;13.734;2023-03-12T12:48:11;16.60;51.80
16347;DHT22;8283;48.504;13.734;2023-03-12T12:50:58;16.60;51.90
16347;DHT22;8283;48.504;13.734;2023-03-12T12:54:27;16.60;52.70
16347;DHT22;8283;48.504;13.734;2023-03-12T12:57:15;16.60;50.70
16347;DHT22;8283;48.504;13.734;2023-03-12T13:03:04;16.30;51.30
16347;DHT22;8283;48.504;13.734;2023-03-12T13:08:59;16.00;51.50
16347;DHT22;8283;48.504;13.734;2023-03-12T13:11:45;15.80;51.50
16347;DHT22;8283;48.504;13.734;2023-03-12T13:14:36;15.70;51.80
16347;DHT22;8283;48.504;13.734;2023-03-12T13:23:57;15.50;52.10
16347;DHT22;8283;48.504;13.734;2023-03-12T13:27:03;15.40;52.10
16347;DHT22;8283;48.504;13.734;2023-03-12T13:29:51;15.40;52.10
16347;DHT22;8283;48.504;13.734;2023-03-12T13:35:36;15.40;52.40
16347;DHT22;8283;48.504;13.734;2023-03-12T13:38:38;15.30;52.40
16347;DHT22;8283;48.504;13.734;2023-03-12T13:41:37;15.30;52.60
16347;DHT22;8283;48.504;13.734;2023-03-12T13:44:27;15.30;52.50
16347;DHT22;8283;48.504;13.734;2023-03-12T13:47:26;15.20;52.50
16347;DHT22;8283;48.504;13.734;2023-03-12T13:50:14;15.30;52.50
16347;DHT22;8283;48.504;13.734;2023-03-12T13:53:05;15.20;52.40
16347;DHT22;8283;48.504;13.734;2023-03-12T13:56:12;15.20;53.00
16347;DHT22;8283;48.504;13.734;2023-03-12T13:59:12;15.10;52.50
16347;DHT22;8283;48.504;13.734;2023-03-12T14:02:03;15.10;52.40
16347;DHT22;8283;48.504;13.734;2023-03-12T14:04:48;15.00;52.50
16347;DHT22;8283;48.504;13.734;2023-03-12T14:17:17;14.80;52.60
16347;DHT22;8283;48.504;13.734;2023-03-12T14:23:02;14.70;52.40
16347;DHT22;8283;48.504;13.734;2023-03-12T14:25:48;14.60;52.50
16347;DHT22;8283;48.504;13.734;2023-03-12T14:28:39;14.60;52.60
16347;DHT22;8283;48.504;13.734;2023-03-12T14:31:25;14.50;52.70
16347;DHT22;8283;48.504;13.734;2023-03-12T14:34:17;14.40;52.70
16347;DHT22;8283;48.504;13.734;2023-03-12T14:37:23;14.40;52.90
16347;DHT22;8283;48.504;13.734;2023-03-12T14:43:31;14.20;53.10
16347;DHT22;8283;48.504;13.734;2023-03-12T14:46:23;14.10;53.00
16347;DHT22;8283;48.504;13.734;2023-03-12T14:49:13;14.10;53.20
16347;DHT22;8283;48.504;13.734;2023-03-12T14:52:02;14.00;53.00
16347;DHT22;8283;48.504;13.734;2023-03-12T14:54:58;13.90;53.00
16347;DHT22;8283;48.504;13.734;2023-03-12T14:57:44;13.90;53.50
16347;DHT22;8283;48.504;13.734;2023-03-12T15:00:29;13.80;53.20
16347;DHT22;8283;48.504;13.734;2023-03-12T15:03:15;13.70;53.10
16347;DHT22;8283;48.504;13.734;2023-03-12T15:06:00;13.70;53.30
16347;DHT22;8283;48.504;13.734;2023-03-12T15:08:45;13.60;53.30
16347;DHT22;8283;48.504;13.734;2023-03-12T15:11:34;13.50;53.30
16347;DHT22;8283;48.504;13.734;2023-03-12T15:14:19;13.50;53.40
16347;DHT22;8283;48.504;13.734;2023-03-12T15:17:05;13.40;53.40
16347;DHT22;8283;48.504;13.734;2023-03-12T15:19:51;13.40;53.50
16347;DHT22;8283;48.504;13.734;2023-03-12T15:22:39;13.40;53.70
16347;DHT22;8283;48.504;13.734;2023-03-12T15:25:30;13.30;53.80
16347;DHT22;8283;48.504;13.734;2023-03-12T15:34:03;13.30;54.20
16347;DHT22;8283;48.504;13.734;2023-03-12T15:36:48;13.20;54.40
16347;DHT22;8283;48.504;13.734;2023-03-12T15:39:36;13.20;53.90
16347;DHT22;8283;48.504;13.734;2023-03-12T15:42:23;13.20;54.00
16347;DHT22;8283;48.504;13.734;2023-03-12T15:45:22;13.10;54.00
16347;DHT22;8283;48.504;13.734;2023-03-12T15:51:32;13.00;54.70
16347;DHT22;8283;48.504;13.734;2023-03-12T15:57:47;13.00;54.50
16347;DHT22;8283;48.504;13.734;2023-03-12T16:00:42;12.90;54.80
16347;DHT22;8283;48.504;13.734;2023-03-12T16:03:27;12.80;54.40
16347;DHT22;8283;48.504;13.734;2023-03-12T16:06:17;12.80;53.90
16347;DHT22;8283;48.504;13.734;2023-03-12T16:09:03;12.70;54.40
16347;DHT22;8283;48.504;13.734;2023-03-12T16:11:48;12.60;54.20
16347;DHT22;8283;48.504;13.734;2023-03-12T16:14:33;12.50;54.20
16347;DHT22;8283;48.504;13.734;2023-03-12T16:17:20;12.40;54.40
16347;DHT22;8283;48.504;13.734;2023-03-12T16:20:08;12.40;54.60
16347;DHT22;8283;48.504;13.734;2023-03-12T16:22:53;12.30;54.60
16347;DHT22;8283;48.504;13.734;2023-03-12T16:25:41;12.30;54.70
16347;DHT22;8283;48.504;13.734;2023-03-12T16:28:26;12.20;54.90
16347;DHT22;8283;48.504;13.734;2023-03-12T16:31:13;12.20;54.80
16347;DHT22;8283;48.504;13.734;2023-03-12T16:33:57;12.20;55.10
16347;DHT22;8283;48.504;13.734;2023-03-12T16:36:42;12.20;55.00
16347;DHT22;8283;48.504;13.734;2023-03-12T16:39:26;12.10;55.00
16347;DHT22;8283;48.504;13.734;2023-03-12T16:42:24;12.10;55.10
16347;DHT22;8283;48.504;13.734;2023-03-12T16:45:11;11.50;55.60
16347;DHT22;8283;48.504;13.734;2023-03-12T16:48:02;12.00;55.40
16347;DHT22;8283;48.504;13.734;2023-03-12T16:50:52;12.00;55.70
16347;DHT22;8283;48.504;13.734;2023-03-12T16:53:37;11.90;55.40
16347;DHT22;8283;48.504;13.734;2023-03-12T16:56:23;11.80;55.30
16347;DHT22;8283;48.504;13.734;2023-03-12T16:59:22;11.80;55.60
16347;DHT22;8283;48.504;13.734;2023-03-12T17:02:14;11.70;56.00
16347;DHT22;8283;48.504;13.734;2023-03-12T17:04:59;11.70;56.10
16347;DHT22;8283;48.504;13.734;2023-03-12T17:07:44;11.70;55.70
16347;DHT22;8283;48.504;13.734;2023-03-12T17:10:28;11.60;55.70
16347;DHT22;8283;48.504;13.734;2023-03-12T17:13:22;11.60;55.80
16347;DHT22;8283;48.504;13.734;2023-03-12T17:16:10;11.60;56.80
16347;DHT22;8283;48.504;13.734;2023-03-12T17:18:55;11.50;56.30
16347;DHT22;8283;48.504;13.734;2023-03-12T17:21:39;11.50;56.20
16347;DHT22;8283;48.504;13.734;2023-03-12T17:24:24;11.40;56.30
16347;DHT22;8283;48.504;13.734;2023-03-12T17:27:14;11.50;56.40
16347;DHT22;8283;48.504;13.734;2023-03-12T17:29:58;11.40;56.40
16347;DHT22;8283;48.504;13.734;2023-03-12T17:32:43;11.40;56.30
16347;DHT22;8283;48.504;13.734;2023-03-12T17:35:27;11.30;56.20
16347;DHT22;8283;48.504;13.734;2023-03-12T17:38:12;11.30;56.40
16347;DHT22;8283;48.504;13.734;2023-03-12T17:40:58;11.20;56.50
16347;DHT22;8283;48.504;13.734;2023-03-12T17:43:43;11.20;56.70
16347;DHT22;8283;48.504;13.734;2023-03-12T17:46:29;11.20;56.70
16347;DHT22;8283;48.504;13.734;2023-03-12T17:49:14;11.10;56.70
16347;DHT22;8283;48.504;13.734;2023-03-12T17:52:01;11.10;56.70
16347;DHT22;8283;48.504;13.734;2023-03-12T17:54:46;11.10;57.00
16347;DHT22;8283;48.504;13.734;2023-03-12T17:57:30;11.00;56.80
16347;DHT22;8283;48.504;13.734;2023-03-12T18:00:15;11.00;56.80
16347;DHT22;8283;48.504;13.734;2023-03-12T18:03:00;11.00;56.80
16347;DHT22;8283;48.504;13.734;2023-03-12T18:05:44;10.90;57.00
16347;DHT22;8283;48.504;13.734;2023-03-12T18:08:28;10.90;57.10
16347;DHT22;8283;48.504;13.734;2023-03-12T18:11:13;10.90;57.30
16347;DHT22;8283;48.504;13.734;2023-03-12T18:13:57;10.80;57.90
16347;DHT22;8283;48.504;13.734;2023-03-12T18:16:42;10.80;57.40
16347;DHT22;8283;48.504;13.734;2023-03-12T18:19:26;10.80;57.30
16347;DHT22;8283;48.504;13.734;2023-03-12T18:22:12;10.80;57.20
16347;DHT22;8283;48.504;13.734;2023-03-12T18:24:57;10.80;57.20
16347;DHT22;8283;48.504;13.734;2023-03-12T18:27:41;10.80;57.30
16347;DHT22;8283;48.504;13.734;2023-03-12T18:30:26;10.70;57.40
16347;DHT22;8283;48.504;13.734;2023-03-12T18:33:12;10.70;57.70
16347;DHT22;8283;48.504;13.734;2023-03-12T18:35:57;10.70;57.90
16347;DHT22;8283;48.504;13.734;2023-03-12T18:38:41;10.60;57.90
16347;DHT22;8283;48.504;13.734;2023-03-12T18:41:25;10.60;58.00
16347;DHT22;8283;48.504;13.734;2023-03-12T18:44:14;10.70;58.10
16347;DHT22;8283;48.504;13.734;2023-03-12T18:46:58;10.70;58.10
16347;DHT22;8283;48.504;13.734;2023-03-12T18:49:42;10.70;58.10
16347;DHT22;8283;48.504;13.734;2023-03-12T18:52:27;10.70;58.10
16347;DHT22;8283;48.504;13.734;2023-03-12T18:55:11;10.70;58.20
16347;DHT22;8283;48.504;13.734;2023-03-12T18:57:58;10.70;58.20
16347;DHT22;8283;48.504;13.734;2023-03-12T19:00:42;10.70;58.40
16347;DHT22;8283;48.504;13.734;2023-03-12T19:03:27;10.70;58.40
16347;DHT22;8283;48.504;13.734;2023-03-12T19:06:15;10.70;58.40
16347;DHT22;8283;48.504;13.734;2023-03-12T19:08:59;10.70;58.60
16347;DHT22;8283;48.504;13.734;2023-03-12T19:11:46;10.70;58.50
16347;DHT22;8283;48.504;13.734;2023-03-12T19:14:31;10.70;58.50
16347;DHT22;8283;48.504;13.734;2023-03-12T19:17:15;10.70;58.40
16347;DHT22;8283;48.504;13.734;2023-03-12T19:20:00;10.70;58.60
16347;DHT22;8283;48.504;13.734;2023-03-12T19:22:45;10.70;58.70
16347;DHT22;8283;48.504;13.734;2023-03-12T19:25:29;10.90;58.90
16347;DHT22;8283;48.504;13.734;2023-03-12T19:28:15;10.70;58.90
16347;DHT22;8283;48.504;13.734;2023-03-12T19:31:01;10.70;58.70
16347;DHT22;8283;48.504;13.734;2023-03-12T19:33:45;10.70;58.70
16347;DHT22;8283;48.504;13.734;2023-03-12T19:36:30;10.70;58.70
16347;DHT22;8283;48.504;13.734;2023-03-12T19:39:14;10.70;58.80